sensor_id;sensor_type;location;lat;lon;timestamp;temperature;humidity
2477;DHT22;1249;51.270;6.756;2022-12-16T00:02:13;1.30;99.90
2477;DHT22;1249;51.270;6.756;2022-12-16T00:04:40;1.30;99.90
2477;DHT22;1249;51.270;6.756;2022-12-16T00:07:06;1.30;99.90
2477;DHT22;1249;51.270;6.756;2022-12-16T00:09:34;1.30;99.90
2477;DHT22;1249;51.270;6.756;2022-12-16T00:12:01;1.40;99.90
2477;DHT22;1249;51.270;6.756;2022-12-16T00:14:28;1.30;99.90
2477;DHT22;1249;51.270;6.756;2022-12-16T00:16:54;1.40;99.90
2477;DHT22;1249;51.270;6.756;2022-12-16T00:19:21;1.30;99.90
2477;DHT22;1249;51.270;6.756;2022-12-16T00:21:49;1.30;99.90
2477;DHT22;1249;51.270;6.756;2022-12-16T00:24:15;1.30;99.90
2477;DHT22;1249;51.270;6.756;2022-12-16T00:26:44;1.30;99.90
2477;DHT22;1249;51.270;6.756;2022-12-16T00:29:10;1.30;99.90
2477;DHT22;1249;51.270;6.756;2022-12-16T00:31:37;1.30;99.90
2477;DHT22;1249;51.270;6.756;2022-12-16T00:34:04;1.30;99.90
2477;DHT22;1249;51.270;6.756;2022-12-16T00:36:30;1.30;99.90
2477;DHT22;1249;51.270;6.756;2022-12-16T00:38:58;1.30;99.90
2477;DHT22;1249;51.270;6.756;2022-12-16T00:41:24;1.30;99.90
2477;DHT22;1249;51.270;6.756;2022-12-16T00:43:52;1.30;99.90
2477;DHT22;1249;51.270;6.756;2022-12-16T00:46:19;1.30;99.90
2477;DHT22;1249;51.270;6.756;2022-12-16T00:48:46;1.30;99.90
2477;DHT22;1249;51.270;6.756;2022-12-16T00:51:12;1.30;99.90
2477;DHT22;1249;51.270;6.756;2022-12-16T00:53:39;1.30;99.90
2477;DHT22;1249;51.270;6.756;2022-12-16T00:56:07;1.30;99.90
2477;DHT22;1249;51.270;6.756;2022-12-16T00:58:35;1.30;99.90
2477;DHT22;1249;51.270;6.756;2022-12-16T01:01:03;1.30;99.90
2477;DHT22;1249;51.270;6.756;2022-12-16T01:03:30;1.30;99.90
2477;DHT22;1249;51.270;6.756;2022-12-16T01:05:57;1.30;99.90
2477;DHT22;1249;51.270;6.756;2022-12-16T01:08:24;1.30;99.90
2477;DHT22;1249;51.270;6.756;2022-12-16T01:10:51;1.30;99.90
2477;DHT22;1249;51.270;6.756;2022-12-16T01:13:19;1.30;99.90
2477;DHT22;1249;51.270;6.756;2022-12-16T01:15:46;1.30;99.90
2477;DHT22;1249;51.270;6.756;2022-12-16T01:18:14;1.30;99.90
2477;DHT22;1249;51.270;6.756;2022-12-16T01:20:41;1.30;99.90
2477;DHT22;1249;51.270;6.756;2022-12-16T01:23:09;1.20;99.90
2477;DHT22;1249;51.270;6.756;2022-12-16T01:25:35;1.20;99.90
2477;DHT22;1249;51.270;6.756;2022-12-16T01:28:02;1.20;99.90
2477;DHT22;1249;51.270;6.756;2022-12-16T01:30:30;1.20;99.90
2477;DHT22;1249;51.270;6.756;2022-12-16T01:32:56;1.20;99.90
2477;DHT22;1249;51.270;6.756;2022-12-16T01:35:25;1.20;99.90
2477;DHT22;1249;51.270;6.756;2022-12-16T01:37:52;1.20;99.90
2477;DHT22;1249;51.270;6.756;2022-12-16T01:40:21;1.20;99.90
2477;DHT22;1249;51.270;6.756;2022-12-16T01:42:48;1.20;99.90
2477;DHT22;1249;51.270;6.756;2022-12-16T01:45:29;1.20;99.90
2477;DHT22;1249;51.270;6.756;2022-12-16T01:47:59;1.20;99.90
2477;DHT22;1249;51.270;6.756;2022-12-16T01:50:29;1.10;99.90
2477;DHT22;1249;51.270;6.756;2022-12-16T01:52:59;1.10;99.90
2477;DHT22;1249;51.270;6.756;2022-12-16T01:55:31;1.10;99.90
2477;DHT22;1249;51.270;6.756;2022-12-16T01:58:05;1.10;99.90
2477;DHT22;1249;51.270;6.756;2022-12-16T02:00:34;1.10;99.90
2477;DHT22;1249;51.270;6.756;2022-12-16T02:03:03;1.10;99.90
2477;DHT22;1249;51.270;6.756;2022-12-16T02:05:32;1.00;99.90
2477;DHT22;1249;51.270;6.756;2022-12-16T02:08:01;1.00;99.90
2477;DHT22;1249;51.270;6.756;2022-12-16T02:10:40;1.10;99.90
2477;DHT22;1249;51.270;6.756;2022-12-16T02:13:18;1.10;99.90
2477;DHT22;1249;51.270;6.756;2022-12-16T02:15:52;1.10;99.90
2477;DHT22;1249;51.270;6.756;2022-12-16T02:18:29;1.10;99.90
2477;DHT22;1249;51.270;6.756;2022-12-16T02:24:06;1.00;99.90
2477;DHT22;1249;51.270;6.756;2022-12-16T02:30:05;1.00;99.90
2477;DHT22;1249;51.270;6.756;2022-12-16T02:32:43;1.00;99.90
2477;DHT22;1249;51.270;6.756;2022-12-16T02:35:17;1.00;99.90
2477;DHT22;1249;51.270;6.756;2022-12-16T02:37:51;0.90;99.90
2477;DHT22;1249;51.270;6.756;2022-12-16T02:40:23;0.90;99.90
2477;DHT22;1249;51.270;6.756;2022-12-16T02:42:55;0.90;99.90
2477;DHT22;1249;51.270;6.756;2022-12-16T02:45:26;0.90;99.90
2477;DHT22;1249;51.270;6.756;2022-12-16T02:47:55;0.90;99.90
2477;DHT22;1249;51.270;6.756;2022-12-16T02:50:24;0.90;99.90
2477;DHT22;1249;51.270;6.756;2022-12-16T02:52:53;1.00;99.90
2477;DHT22;1249;51.270;6.756;2022-12-16T02:55:23;0.90;99.90
2477;DHT22;1249;51.270;6.756;2022-12-16T02:58:10;0.90;99.90
2477;DHT22;1249;51.270;6.756;2022-12-16T03:00:48;1.00;99.90
2477;DHT22;1249;51.270;6.756;2022-12-16T03:03:22;1.00;99.90
2477;DHT22;1249;51.270;6.756;2022-12-16T03:05:50;0.90;99.90
2477;DHT22;1249;51.270;6.756;2022-12-16T03:08:21;0.90;99.90
2477;DHT22;1249;51.270;6.756;2022-12-16T03:10:52;0.90;99.90
2477;DHT22;1249;51.270;6.756;2022-12-16T03:13:21;0.90;99.90
2477;DHT22;1249;51.270;6.756;2022-12-16T03:15:52;0.90;99.90
2477;DHT22;1249;51.270;6.756;2022-12-16T03:18:23;0.90;99.90
2477;DHT22;1249;51.270;6.756;2022-12-16T03:20:53;0.80;99.90
2477;DHT22;1249;51.270;6.756;2022-12-16T03:23:24;0.90;99.90
2477;DHT22;1249;51.270;6.756;2022-12-16T03:25:57;0.90;99.90
2477;DHT22;1249;51.270;6.756;2022-12-16T03:28:32;0.80;99.90
2477;DHT22;1249;51.270;6.756;2022-12-16T03:31:04;0.80;99.90
2477;DHT22;1249;51.270;6.756;2022-12-16T03:33:38;0.90;99.90
2477;DHT22;1249;51.270;6.756;2022-12-16T03:36:09;0.80;99.90
2477;DHT22;1249;51.270;6.756;2022-12-16T03:38:38;0.80;99.90
2477;DHT22;1249;51.270;6.756;2022-12-16T03:41:06;0.80;99.90
2477;DHT22;1249;51.270;6.756;2022-12-16T03:43:33;0.80;99.90
2477;DHT22;1249;51.270;6.756;2022-12-16T03:46:02;0.80;99.90
2477;DHT22;1249;51.270;6.756;2022-12-16T03:48:30;0.80;99.90
2477;DHT22;1249;51.270;6.756;2022-12-16T03:50:58;0.80;99.90
2477;DHT22;1249;51.270;6.756;2022-12-16T03:53:25;0.80;99.90
2477;DHT22;1249;51.270;6.756;2022-12-16T03:55:51;0.80;99.90
2477;DHT22;1249;51.270;6.756;2022-12-16T03:58:18;0.80;99.90
2477;DHT22;1249;51.270;6.756;2022-12-16T04:00:46;0.80;99.90
2477;DHT22;1249;51.270;6.756;2022-12-16T04:03:12;0.80;99.90
2477;DHT22;1249;51.270;6.756;2022-12-16T04:05:41;0.80;99.90
2477;DHT22;1249;51.270;6.756;2022-12-16T04:08:09;0.80;99.90
2477;DHT22;1249;51.270;6.756;2022-12-16T04:10:36;0.80;99.90
2477;DHT22;1249;51.270;6.756;2022-12-16T04:13:21;0.80;99.90
2477;DHT22;1249;51.270;6.756;2022-12-16T04:16:06;0.80;99.90
2477;DHT22;1249;51.270;6.756;2022-12-16T04:18:50;0.80;99.90
2477;DHT22;1249;51.270;6.756;2022-12-16T04:21:35;0.80;99.90
2477;DHT22;1249;51.270;6.756;2022-12-16T04:24:21;0.80;99.90
2477;DHT22;1249;51.270;6.756;2022-12-16T04:26:51;0.80;99.90
2477;DHT22;1249;51.270;6.756;2022-12-16T04:29:35;0.80;99.90
2477;DHT22;1249;51.270;6.756;2022-12-16T04:32:22;0.70;99.90
2477;DHT22;1249;51.270;6.756;2022-12-16T04:34:49;0.70;99.90
2477;DHT22;1249;51.270;6.756;2022-12-16T04:37:16;0.70;99.90
2477;DHT22;1249;51.270;6.756;2022-12-16T04:40:04;0.70;99.90
2477;DHT22;1249;51.270;6.756;2022-12-16T04:42:49;0.80;99.90
2477;DHT22;1249;51.270;6.756;2022-12-16T04:45:29;0.70;99.90
2477;DHT22;1249;51.270;6.756;2022-12-16T04:48:14;0.70;99.90
2477;DHT22;1249;51.270;6.756;2022-12-16T04:50:58;0.60;99.90
2477;DHT22;1249;51.270;6.756;2022-12-16T04:53:42;0.70;99.90
2477;DHT22;1249;51.270;6.756;2022-12-16T04:56:27;0.70;99.90
2477;DHT22;1249;51.270;6.756;2022-12-16T04:59:11;0.60;99.90
2477;DHT22;1249;51.270;6.756;2022-12-16T05:01:55;0.70;99.90
2477;DHT22;1249;51.270;6.756;2022-12-16T05:04:40;0.60;99.90
2477;DHT22;1249;51.270;6.756;2022-12-16T05:07:24;0.60;99.90
2477;DHT22;1249;51.270;6.756;2022-12-16T05:10:08;0.60;99.90
2477;DHT22;1249;51.270;6.756;2022-12-16T05:12:54;0.60;99.90
2477;DHT22;1249;51.270;6.756;2022-12-16T05:15:38;0.60;99.90
2477;DHT22;1249;51.270;6.756;2022-12-16T05:18:23;0.60;99.90
2477;DHT22;1249;51.270;6.756;2022-12-16T05:21:07;0.60;99.90
2477;DHT22;1249;51.270;6.756;2022-12-16T05:23:51;0.50;99.90
2477;DHT22;1249;51.270;6.756;2022-12-16T05:26:35;0.50;99.90
2477;DHT22;1249;51.270;6.756;2022-12-16T05:29:20;0.60;99.90
2477;DHT22;1249;51.270;6.756;2022-12-16T05:32:05;0.50;99.90
2477;DHT22;1249;51.270;6.756;2022-12-16T05:34:49;0.50;99.90
2477;DHT22;1249;51.270;6.756;2022-12-16T05:37:33;0.50;99.90
2477;DHT22;1249;51.270;6.756;2022-12-16T05:40:17;0.50;99.90
2477;DHT22;1249;51.270;6.756;2022-12-16T05:43:01;0.50;99.90
2477;DHT22;1249;51.270;6.756;2022-12-16T05:45:47;0.50;99.90
2477;DHT22;1249;51.270;6.756;2022-12-16T05:48:31;0.50;99.90
2477;DHT22;1249;51.270;6.756;2022-12-16T05:51:15;0.50;99.90
2477;DHT22;1249;51.270;6.756;2022-12-16T05:53:59;0.50;99.90
2477;DHT22;1249;51.270;6.756;2022-12-16T05:56:43;0.40;99.90
2477;DHT22;1249;51.270;6.756;2022-12-16T05:59:28;0.50;99.90
2477;DHT22;1249;51.270;6.756;2022-12-16T06:02:13;0.50;99.90
2477;DHT22;1249;51.270;6.756;2022-12-16T06:05:06;0.50;99.90
2477;DHT22;1249;51.270;6.756;2022-12-16T06:07:50;0.40;99.90
2477;DHT22;1249;51.270;6.756;2022-12-16T06:10:34;0.40;99.90
2477;DHT22;1249;51.270;6.756;2022-12-16T06:13:18;0.40;99.90
2477;DHT22;1249;51.270;6.756;2022-12-16T06:16:03;0.50;99.90
2477;DHT22;1249;51.270;6.756;2022-12-16T06:18:48;0.50;99.90
2477;DHT22;1249;51.270;6.756;2022-12-16T06:21:33;0.50;99.90
2477;DHT22;1249;51.270;6.756;2022-12-16T06:24:17;0.40;99.90
2477;DHT22;1249;51.270;6.756;2022-12-16T06:27:01;0.40;99.90
2477;DHT22;1249;51.270;6.756;2022-12-16T06:29:45;0.50;99.90
2477;DHT22;1249;51.270;6.756;2022-12-16T06:32:29;0.50;99.90
2477;DHT22;1249;51.270;6.756;2022-12-16T06:35:15;0.50;99.90
2477;DHT22;1249;51.270;6.756;2022-12-16T06:37:59;0.40;99.90
2477;DHT22;1249;51.270;6.756;2022-12-16T06:40:43;0.40;99.90
2477;DHT22;1249;51.270;6.756;2022-12-16T06:43:29;0.40;99.90
2477;DHT22;1249;51.270;6.756;2022-12-16T06:46:14;1.80;99.90
2477;DHT22;1249;51.270;6.756;2022-12-16T06:48:58;2.80;99.90
2477;DHT22;1249;51.270;6.756;2022-12-16T06:51:44;3.50;99.90
2477;DHT22;1249;51.270;6.756;2022-12-16T06:54:28;3.80;99.90
2477;DHT22;1249;51.270;6.756;2022-12-16T06:57:12;3.30;99.90
2477;DHT22;1249;51.270;6.756;2022-12-16T06:59:56;2.80;99.90
2477;DHT22;1249;51.270;6.756;2022-12-16T07:02:40;2.40;99.90
2477;DHT22;1249;51.270;6.756;2022-12-16T07:05:24;2.10;99.90
2477;DHT22;1249;51.270;6.756;2022-12-16T07:08:10;1.70;99.90
2477;DHT22;1249;51.270;6.756;2022-12-16T07:10:54;1.50;99.90
2477;DHT22;1249;51.270;6.756;2022-12-16T07:13:38;1.30;99.90
2477;DHT22;1249;51.270;6.756;2022-12-16T07:16:22;1.10;99.90
2477;DHT22;1249;51.270;6.756;2022-12-16T07:19:07;1.00;99.90
2477;DHT22;1249;51.270;6.756;2022-12-16T07:21:51;0.90;99.90
2477;DHT22;1249;51.270;6.756;2022-12-16T07:24:37;0.90;99.90
2477;DHT22;1249;51.270;6.756;2022-12-16T07:27:21;0.80;99.90
2477;DHT22;1249;51.270;6.756;2022-12-16T07:30:06;0.80;99.90
2477;DHT22;1249;51.270;6.756;2022-12-16T07:32:50;0.80;99.90
2477;DHT22;1249;51.270;6.756;2022-12-16T07:35:34;0.60;99.90
2477;DHT22;1249;51.270;6.756;2022-12-16T07:38:18;0.60;99.90
2477;DHT22;1249;51.270;6.756;2022-12-16T07:41:04;0.60;99.90
2477;DHT22;1249;51.270;6.756;2022-12-16T07:43:48;1.00;99.90
2477;DHT22;1249;51.270;6.756;2022-12-16T07:46:32;0.90;99.90
2477;DHT22;1249;51.270;6.756;2022-12-16T07:49:16;0.90;99.90
2477;DHT22;1249;51.270;6.756;2022-12-16T07:52:00;0.90;99.90
2477;DHT22;1249;51.270;6.756;2022-12-16T07:54:45;0.80;99.90
2477;DHT22;1249;51.270;6.756;2022-12-16T07:57:30;0.90;99.90
2477;DHT22;1249;51.270;6.756;2022-12-16T08:00:15;0.80;99.90
2477;DHT22;1249;51.270;6.756;2022-12-16T08:02:59;0.90;99.90
2477;DHT22;1249;51.270;6.756;2022-12-16T08:05:43;0.90;99.90
2477;DHT22;1249;51.270;6.756;2022-12-16T08:08:27;0.90;99.90
2477;DHT22;1249;51.270;6.756;2022-12-16T08:11:11;0.90;99.90
2477;DHT22;1249;51.270;6.756;2022-12-16T08:13:57;1.00;99.90
2477;DHT22;1249;51.270;6.756;2022-12-16T08:16:41;1.00;99.90
2477;DHT22;1249;51.270;6.756;2022-12-16T08:19:25;1.00;99.90
2477;DHT22;1249;51.270;6.756;2022-12-16T08:22:10;1.10;99.90
2477;DHT22;1249;51.270;6.756;2022-12-16T08:24:54;1.10;99.90
2477;DHT22;1249;51.270;6.756;2022-12-16T08:27:38;1.60;99.90
2477;DHT22;1249;51.270;6.756;2022-12-16T08:30:23;1.70;99.90
2477;DHT22;1249;51.270;6.756;2022-12-16T08:33:07;1.70;99.90
2477;DHT22;1249;51.270;6.756;2022-12-16T08:35:51;1.70;99.90
2477;DHT22;1249;51.270;6.756;2022-12-16T08:38:36;1.70;99.90
2477;DHT22;1249;51.270;6.756;2022-12-16T08:41:20;1.80;99.90
2477;DHT22;1249;51.270;6.756;2022-12-16T08:44:04;1.80;99.90
2477;DHT22;1249;51.270;6.756;2022-12-16T08:46:49;1.90;99.90
2477;DHT22;1249;51.270;6.756;2022-12-16T08:49:34;1.90;99.90
2477;DHT22;1249;51.270;6.756;2022-12-16T08:52:18;1.90;99.90
2477;DHT22;1249;51.270;6.756;2022-12-16T08:55:02;1.90;99.90
2477;DHT22;1249;51.270;6.756;2022-12-16T08:57:52;1.90;99.90
2477;DHT22;1249;51.270;6.756;2022-12-16T09:00:37;2.00;99.90
2477;DHT22;1249;51.270;6.756;2022-12-16T09:03:22;2.10;99.90
2477;DHT22;1249;51.270;6.756;2022-12-16T09:06:06;2.20;99.90
2477;DHT22;1249;51.270;6.756;2022-12-16T09:08:51;2.20;99.90
2477;DHT22;1249;51.270;6.756;2022-12-16T09:11:35;2.40;99.90
2477;DHT22;1249;51.270;6.756;2022-12-16T09:14:20;2.50;99.90
2477;DHT22;1249;51.270;6.756;2022-12-16T09:17:04;2.50;99.90
2477;DHT22;1249;51.270;6.756;2022-12-16T09:19:50;2.50;99.90
2477;DHT22;1249;51.270;6.756;2022-12-16T09:22:38;2.50;99.90
2477;DHT22;1249;51.270;6.756;2022-12-16T09:25:22;2.50;99.90
2477;DHT22;1249;51.270;6.756;2022-12-16T09:28:07;2.50;99.90
2477;DHT22;1249;51.270;6.756;2022-12-16T09:30:51;2.60;99.90
2477;DHT22;1249;51.270;6.756;2022-12-16T09:33:35;2.60;99.90
2477;DHT22;1249;51.270;6.756;2022-12-16T09:36:20;2.60;99.90
2477;DHT22;1249;51.270;6.756;2022-12-16T09:39:05;2.70;99.90
2477;DHT22;1249;51.270;6.756;2022-12-16T09:41:59;2.80;99.90
2477;DHT22;1249;51.270;6.756;2022-12-16T09:44:51;2.90;99.90
2477;DHT22;1249;51.270;6.756;2022-12-16T09:47:41;3.00;99.90
2477;DHT22;1249;51.270;6.756;2022-12-16T09:50:43;3.00;99.90
2477;DHT22;1249;51.270;6.756;2022-12-16T09:53:33;3.10;99.90
2477;DHT22;1249;51.270;6.756;2022-12-16T09:56:30;3.20;99.90
2477;DHT22;1249;51.270;6.756;2022-12-16T09:59:19;3.20;99.90
2477;DHT22;1249;51.270;6.756;2022-12-16T10:02:09;3.30;99.90
2477;DHT22;1249;51.270;6.756;2022-12-16T10:04:54;3.50;99.90
2477;DHT22;1249;51.270;6.756;2022-12-16T10:07:43;3.50;99.90
2477;DHT22;1249;51.270;6.756;2022-12-16T10:10:33;3.60;99.90
2477;DHT22;1249;51.270;6.756;2022-12-16T10:13:25;3.70;99.90
2477;DHT22;1249;51.270;6.756;2022-12-16T10:16:21;3.80;99.90
2477;DHT22;1249;51.270;6.756;2022-12-16T10:19:12;3.90;99.90
2477;DHT22;1249;51.270;6.756;2022-12-16T10:22:04;3.90;99.90
2477;DHT22;1249;51.270;6.756;2022-12-16T10:24:56;4.00;99.90
2477;DHT22;1249;51.270;6.756;2022-12-16T10:27:46;4.10;99.90
2477;DHT22;1249;51.270;6.756;2022-12-16T10:30:32;4.20;99.90
2477;DHT22;1249;51.270;6.756;2022-12-16T10:33:19;4.30;99.90
2477;DHT22;1249;51.270;6.756;2022-12-16T10:36:10;4.40;99.90
2477;DHT22;1249;51.270;6.756;2022-12-16T10:39:00;4.50;99.90
2477;DHT22;1249;51.270;6.756;2022-12-16T10:41:48;4.60;99.90
2477;DHT22;1249;51.270;6.756;2022-12-16T10:44:37;4.70;99.90
2477;DHT22;1249;51.270;6.756;2022-12-16T10:47:26;4.80;99.90
2477;DHT22;1249;51.270;6.756;2022-12-16T10:50:12;4.80;99.90
2477;DHT22;1249;51.270;6.756;2022-12-16T10:52:59;4.70;99.90
2477;DHT22;1249;51.270;6.756;2022-12-16T10:55:58;4.70;99.90
2477;DHT22;1249;51.270;6.756;2022-12-16T10:58:49;4.50;99.90
2477;DHT22;1249;51.270;6.756;2022-12-16T11:01:36;4.40;99.90
2477;DHT22;1249;51.270;6.756;2022-12-16T11:04:30;4.30;99.90
2477;DHT22;1249;51.270;6.756;2022-12-16T11:07:27;4.40;99.90
2477;DHT22;1249;51.270;6.756;2022-12-16T11:10:28;4.50;99.90
2477;DHT22;1249;51.270;6.756;2022-12-16T11:13:19;4.50;99.90
2477;DHT22;1249;51.270;6.756;2022-12-16T11:16:07;4.60;99.90
2477;DHT22;1249;51.270;6.756;2022-12-16T11:18:54;4.60;99.90
2477;DHT22;1249;51.270;6.756;2022-12-16T11:21:38;4.70;99.90
2477;DHT22;1249;51.270;6.756;2022-12-16T11:24:22;4.80;99.90
2477;DHT22;1249;51.270;6.756;2022-12-16T11:27:13;4.80;99.90
2477;DHT22;1249;51.270;6.756;2022-12-16T11:29:59;4.80;99.90
2477;DHT22;1249;51.270;6.756;2022-12-16T11:32:46;4.80;99.90
2477;DHT22;1249;51.270;6.756;2022-12-16T11:35:36;4.80;99.90
2477;DHT22;1249;51.270;6.756;2022-12-16T11:38:24;4.80;99.90
2477;DHT22;1249;51.270;6.756;2022-12-16T11:41:19;4.70;99.90
2477;DHT22;1249;51.270;6.756;2022-12-16T11:44:10;4.70;99.90
2477;DHT22;1249;51.270;6.756;2022-12-16T11:46:56;4.60;99.90
2477;DHT22;1249;51.270;6.756;2022-12-16T11:49:40;4.60;99.90
2477;DHT22;1249;51.270;6.756;2022-12-16T11:52:25;4.50;99.90
2477;DHT22;1249;51.270;6.756;2022-12-16T11:55:15;4.40;99.90
2477;DHT22;1249;51.270;6.756;2022-12-16T11:58:05;4.40;99.90
2477;DHT22;1249;51.270;6.756;2022-12-16T12:00:57;4.40;99.90
2477;DHT22;1249;51.270;6.756;2022-12-16T12:03:44;4.50;99.90
2477;DHT22;1249;51.270;6.756;2022-12-16T12:06:34;4.50;99.90
2477;DHT22;1249;51.270;6.756;2022-12-16T12:09:26;4.50;99.90
2477;DHT22;1249;51.270;6.756;2022-12-16T12:12:21;6.40;99.90
2477;DHT22;1249;51.270;6.756;2022-12-16T12:15:16;7.80;99.90
2477;DHT22;1249;51.270;6.756;2022-12-16T12:18:07;7.50;99.90
2477;DHT22;1249;51.270;6.756;2022-12-16T12:21:01;7.10;99.90
2477;DHT22;1249;51.270;6.756;2022-12-16T12:23:55;6.80;99.90
2477;DHT22;1249;51.270;6.756;2022-12-16T12:26:49;6.40;99.90
2477;DHT22;1249;51.270;6.756;2022-12-16T12:29:44;6.10;99.90
2477;DHT22;1249;51.270;6.756;2022-12-16T12:32:38;5.90;99.90
2477;DHT22;1249;51.270;6.756;2022-12-16T12:35:41;5.60;99.90
2477;DHT22;1249;51.270;6.756;2022-12-16T12:38:33;5.50;99.90
2477;DHT22;1249;51.270;6.756;2022-12-16T12:41:23;5.40;99.90
2477;DHT22;1249;51.270;6.756;2022-12-16T12:44:15;5.20;99.90
2477;DHT22;1249;51.270;6.756;2022-12-16T12:49:40;5.00;99.90
2477;DHT22;1249;51.270;6.756;2022-12-16T12:52:55;4.90;99.90
2477;DHT22;1249;51.270;6.756;2022-12-16T12:55:50;4.80;99.90
2477;DHT22;1249;51.270;6.756;2022-12-16T12:58:37;4.70;99.90
2477;DHT22;1249;51.270;6.756;2022-12-16T13:01:25;4.70;99.90
2477;DHT22;1249;51.270;6.756;2022-12-16T13:04:14;4.70;99.90
2477;DHT22;1249;51.270;6.756;2022-12-16T13:07:00;4.70;99.90
2477;DHT22;1249;51.270;6.756;2022-12-16T13:09:45;4.70;99.90
2477;DHT22;1249;51.270;6.756;2022-12-16T13:12:30;4.70;99.90
2477;DHT22;1249;51.270;6.756;2022-12-16T13:15:32;4.70;99.90
2477;DHT22;1249;51.270;6.756;2022-12-16T13:18:23;4.70;99.90
2477;DHT22;1249;51.270;6.756;2022-12-16T13:21:42;4.70;99.90
2477;DHT22;1249;51.270;6.756;2022-12-16T13:24:36;6.30;99.90
2477;DHT22;1249;51.270;6.756;2022-12-16T13:27:22;6.30;99.90
2477;DHT22;1249;51.270;6.756;2022-12-16T13:30:22;6.30;99.90
2477;DHT22;1249;51.270;6.756;2022-12-16T13:33:22;6.10;99.90
2477;DHT22;1249;51.270;6.756;2022-12-16T13:36:07;5.80;99.90
2477;DHT22;1249;51.270;6.756;2022-12-16T13:38:54;5.70;99.90
2477;DHT22;1249;51.270;6.756;2022-12-16T13:41:50;5.50;99.90
2477;DHT22;1249;51.270;6.756;2022-12-16T13:44:57;5.40;99.90
2477;DHT22;1249;51.270;6.756;2022-12-16T13:48:02;5.30;99.90
2477;DHT22;1249;51.270;6.756;2022-12-16T13:50:50;5.20;99.90
2477;DHT22;1249;51.270;6.756;2022-12-16T13:53:41;5.00;99.90
2477;DHT22;1249;51.270;6.756;2022-12-16T13:56:32;4.90;99.90
2477;DHT22;1249;51.270;6.756;2022-12-16T13:59:21;4.90;99.90
2477;DHT22;1249;51.270;6.756;2022-12-16T14:02:25;4.90;99.90
2477;DHT22;1249;51.270;6.756;2022-12-16T14:05:22;4.80;99.90
2477;DHT22;1249;51.270;6.756;2022-12-16T14:08:12;4.70;99.90
2477;DHT22;1249;51.270;6.756;2022-12-16T14:11:15;4.70;99.90
2477;DHT22;1249;51.270;6.756;2022-12-16T14:14:07;4.70;99.90
2477;DHT22;1249;51.270;6.756;2022-12-16T14:16:56;4.60;99.90
2477;DHT22;1249;51.270;6.756;2022-12-16T14:19:52;4.70;99.90
2477;DHT22;1249;51.270;6.756;2022-12-16T14:22:48;4.60;99.90
2477;DHT22;1249;51.270;6.756;2022-12-16T14:25:35;4.60;99.90
2477;DHT22;1249;51.270;6.756;2022-12-16T14:28:28;4.50;99.90
2477;DHT22;1249;51.270;6.756;2022-12-16T14:31:16;4.50;99.90
2477;DHT22;1249;51.270;6.756;2022-12-16T14:34:02;4.50;99.90
2477;DHT22;1249;51.270;6.756;2022-12-16T14:36:47;4.50;99.90
2477;DHT22;1249;51.270;6.756;2022-12-16T14:39:37;4.50;99.90
2477;DHT22;1249;51.270;6.756;2022-12-16T14:42:25;4.50;99.90
2477;DHT22;1249;51.270;6.756;2022-12-16T14:45:20;4.40;99.90
2477;DHT22;1249;51.270;6.756;2022-12-16T14:48:14;4.40;99.90
2477;DHT22;1249;51.270;6.756;2022-12-16T14:51:15;4.30;99.90
2477;DHT22;1249;51.270;6.756;2022-12-16T14:54:15;4.30;99.90
2477;DHT22;1249;51.270;6.756;2022-12-16T14:57:00;4.20;99.90
2477;DHT22;1249;51.270;6.756;2022-12-16T14:59:46;4.10;99.90
2477;DHT22;1249;51.270;6.756;2022-12-16T15:02:33;4.20;99.90
2477;DHT22;1249;51.270;6.756;2022-12-16T15:05:31;4.10;99.90
2477;DHT22;1249;51.270;6.756;2022-12-16T15:08:17;4.10;99.90
2477;DHT22;1249;51.270;6.756;2022-12-16T15:11:04;4.10;99.90
2477;DHT22;1249;51.270;6.756;2022-12-16T15:13:55;4.10;99.90
2477;DHT22;1249;51.270;6.756;2022-12-16T15:16:42;4.10;99.90
2477;DHT22;1249;51.270;6.756;2022-12-16T15:19:30;4.10;99.90
2477;DHT22;1249;51.270;6.756;2022-12-16T15:22:16;4.10;99.90
2477;DHT22;1249;51.270;6.756;2022-12-16T15:25:01;4.00;99.90
2477;DHT22;1249;51.270;6.756;2022-12-16T15:27:52;4.00;99.90
2477;DHT22;1249;51.270;6.756;2022-12-16T15:30:39;4.00;99.90
2477;DHT22;1249;51.270;6.756;2022-12-16T15:33:26;4.00;99.90
2477;DHT22;1249;51.270;6.756;2022-12-16T15:36:23;3.90;99.90
2477;DHT22;1249;51.270;6.756;2022-12-16T15:39:10;4.00;99.90
2477;DHT22;1249;51.270;6.756;2022-12-16T15:42:00;4.00;99.90
2477;DHT22;1249;51.270;6.756;2022-12-16T15:44:47;4.10;99.90
2477;DHT22;1249;51.270;6.756;2022-12-16T15:47:34;4.00;99.90
2477;DHT22;1249;51.270;6.756;2022-12-16T15:50:23;4.00;99.90
2477;DHT22;1249;51.270;6.756;2022-12-16T15:53:16;4.00;99.90
2477;DHT22;1249;51.270;6.756;2022-12-16T15:56:16;3.90;99.90
2477;DHT22;1249;51.270;6.756;2022-12-16T15:59:13;4.00;99.90
2477;DHT22;1249;51.270;6.756;2022-12-16T16:02:04;3.90;99.90
2477;DHT22;1249;51.270;6.756;2022-12-16T16:04:51;3.90;99.90
2477;DHT22;1249;51.270;6.756;2022-12-16T16:07:37;4.00;99.90
2477;DHT22;1249;51.270;6.756;2022-12-16T16:10:21;4.00;99.90
2477;DHT22;1249;51.270;6.756;2022-12-16T16:13:06;4.00;99.90
2477;DHT22;1249;51.270;6.756;2022-12-16T16:15:51;4.00;99.90
2477;DHT22;1249;51.270;6.756;2022-12-16T16:18:39;4.00;99.90
2477;DHT22;1249;51.270;6.756;2022-12-16T16:21:23;4.00;99.90
2477;DHT22;1249;51.270;6.756;2022-12-16T16:24:09;4.00;99.90
2477;DHT22;1249;51.270;6.756;2022-12-16T16:26:53;4.00;99.90
2477;DHT22;1249;51.270;6.756;2022-12-16T16:29:40;4.60;99.90
2477;DHT22;1249;51.270;6.756;2022-12-16T16:32:24;5.20;99.90
2477;DHT22;1249;51.270;6.756;2022-12-16T16:35:08;5.00;99.90
2477;DHT22;1249;51.270;6.756;2022-12-16T16:37:52;4.80;99.90
2477;DHT22;1249;51.270;6.756;2022-12-16T16:40:40;4.60;99.90
2477;DHT22;1249;51.270;6.756;2022-12-16T16:43:25;4.40;99.90
2477;DHT22;1249;51.270;6.756;2022-12-16T16:46:29;4.30;99.90
2477;DHT22;1249;51.270;6.756;2022-12-16T16:49:20;4.10;99.90
2477;DHT22;1249;51.270;6.756;2022-12-16T16:52:09;4.00;99.90
2477;DHT22;1249;51.270;6.756;2022-12-16T16:54:54;4.00;99.90
2477;DHT22;1249;51.270;6.756;2022-12-16T16:57:39;3.90;99.90
2477;DHT22;1249;51.270;6.756;2022-12-16T17:00:24;3.80;99.90
2477;DHT22;1249;51.270;6.756;2022-12-16T17:03:08;3.80;99.90
2477;DHT22;1249;51.270;6.756;2022-12-16T17:05:53;3.80;99.90
2477;DHT22;1249;51.270;6.756;2022-12-16T17:08:37;3.80;99.90
2477;DHT22;1249;51.270;6.756;2022-12-16T17:11:22;3.70;99.90
2477;DHT22;1249;51.270;6.756;2022-12-16T17:14:11;3.70;99.90
2477;DHT22;1249;51.270;6.756;2022-12-16T17:16:55;3.70;99.90
2477;DHT22;1249;51.270;6.756;2022-12-16T17:19:39;4.00;99.90
2477;DHT22;1249;51.270;6.756;2022-12-16T17:22:24;3.90;99.90
2477;DHT22;1249;51.270;6.756;2022-12-16T17:25:09;4.30;99.90
2477;DHT22;1249;51.270;6.756;2022-12-16T17:27:53;4.30;99.90
2477;DHT22;1249;51.270;6.756;2022-12-16T17:30:38;4.40;99.90
2477;DHT22;1249;51.270;6.756;2022-12-16T17:33:23;5.10;99.90
2477;DHT22;1249;51.270;6.756;2022-12-16T17:36:10;5.00;99.90
2477;DHT22;1249;51.270;6.756;2022-12-16T17:38:54;4.70;99.90
2477;DHT22;1249;51.270;6.756;2022-12-16T17:41:39;4.60;99.90
2477;DHT22;1249;51.270;6.756;2022-12-16T17:44:23;4.40;99.90
2477;DHT22;1249;51.270;6.756;2022-12-16T17:47:08;4.30;99.90
2477;DHT22;1249;51.270;6.756;2022-12-16T17:49:53;4.20;99.90
2477;DHT22;1249;51.270;6.756;2022-12-16T17:52:37;4.10;99.90
2477;DHT22;1249;51.270;6.756;2022-12-16T17:55:21;4.00;99.90
2477;DHT22;1249;51.270;6.756;2022-12-16T17:58:05;4.10;99.90
2477;DHT22;1249;51.270;6.756;2022-12-16T18:00:50;4.10;99.90
2477;DHT22;1249;51.270;6.756;2022-12-16T18:03:35;4.10;99.90
2477;DHT22;1249;51.270;6.756;2022-12-16T18:06:19;4.10;99.90
2477;DHT22;1249;51.270;6.756;2022-12-16T18:09:04;4.10;99.90
2477;DHT22;1249;51.270;6.756;2022-12-16T18:11:49;4.10;99.90